Blairstown Advisory Only (1N7)
Blairstown, NJ
Field Elevation: 371
Lat: 40°58.27N  Long: 74°59.85W
CTAF/Unicom Freq: 123.0000
   
     For Weather-by-Phone, call 908-362-1700
Weather Advisories
2024-02-29   21:44 Z
Altimeter 30.28" Hg
Wind 280° @ 12 KT
Gusts 20 KT
Visibility 10 SM
Ceiling CLR
Temperature 3° C (37° F)
Dewpoint -13° C (9° F)
Relative Humidity 30%
Density Altitude --
Condensation Altitude 8,100 feet
Wind Chill: -2° C (28° F)
Wind and Runways
Indicated Runway = 25
Headwind = 10 kt
Crosswind = 6 kt
History
 
 
 
More Info
NOAA Forecast
 
 
About Us
Belfort Instrument
 
 
FAA Disclaimer: The data displayed is for advisory purposes only and is not to be used for flight planning or operations. For official data, please call 908-362-1700 to hear the current automated AWOS voice message.
  METAR 1N7 292144Z AUTO 28012G20KT 10 SM CLR 03/M13 A3028